Time;durP1;ratioP1;P1;durP2;ratioP2;P2;SDS_P1;SDS_P2;PMS_P1;PMS_P2;Temp;Humidity;BMP_temperature;BMP_pressure;BME280_temperature;BME280_humidity;BME280_pressure;Samples;Min_cycle;Max_cycle;Signal;HPM_P1;HPM_P2
2021/12/07 00:02:12;;;;;;;5.53;3.63;;;2.80;83.20;;;3.01;63.27;96879.72;5107803;28;20051;-40
2021/12/07 00:04:41;;;;;;;4.70;3.07;;;2.80;83.40;;;3.07;63.59;96878.34;5107297;28;20057;-39
2021/12/07 00:07:09;;;;;;;4.87;4.00;;;2.90;83.10;;;3.11;63.10;96883.19;5106038;28;20054;-40
2021/12/07 00:09:37;;;;;;;4.40;3.10;;;2.90;82.90;;;3.12;62.90;96881.38;5088221;28;20061;-39
2021/12/07 00:12:06;;;;;;;5.80;3.63;;;3.00;82.40;;;3.13;62.97;96877.81;5106775;28;20051;-40
2021/12/07 00:14:39;;;;;;;4.70;3.00;;;3.00;81.90;;;3.14;62.63;96867.16;5107247;28;20069;-40
2021/12/07 00:17:08;;;;;;;5.63;3.60;;;2.80;81.80;;;3.14;62.87;96867.16;5106333;28;20069;-39
2021/12/07 00:19:37;;;;;;;4.17;2.93;;;2.90;82.40;;;3.14;63.21;96867.16;5107915;28;20051;-40
2021/12/07 00:22:08;;;;;;;5.60;3.97;;;2.90;82.60;;;3.13;63.56;96875.19;5106749;28;20241;-39
2021/12/07 00:24:40;;;;;;;5.87;3.60;;;2.90;82.30;;;3.08;62.69;96874.72;5108017;28;20250;-40
2021/12/07 00:27:08;;;;;;;6.30;3.90;;;2.80;83.00;;;3.13;63.43;96872.53;5106423;28;20054;-39
2021/12/07 00:29:36;;;;;;;5.73;4.17;;;2.90;83.50;;;3.17;63.71;96871.31;5090629;28;20058;-39
2021/12/07 00:32:28;;;;;;;6.93;4.30;;;2.90;83.20;;;3.19;63.35;96886.97;5089487;28;20070;-39
2021/12/07 00:37:57;;;;;;;6.57;3.60;;;3.00;83.70;;;3.08;63.81;96872.97;5073080;28;20237;-39
2021/12/07 00:40:26;;;;;;;6.63;4.43;;;3.00;84.40;;;3.03;64.58;96867.25;5088486;28;20051;-39
2021/12/07 00:42:53;;;;;;;6.17;4.37;;;2.90;86.00;;;3.00;64.30;96870.13;5088706;28;20056;-39
2021/12/07 00:45:22;;;;;;;6.13;3.90;;;2.90;87.30;;;2.98;64.82;96868.63;5105686;28;20059;-39
2021/12/07 00:47:53;;;;;;;7.43;4.43;;;2.80;88.50;;;2.90;65.73;96866.66;5106917;28;20249;-39
2021/12/07 00:50:24;;;;;;;5.97;3.90;;;2.80;89.40;;;2.94;65.53;96860.97;5106860;28;20482;-40
2021/12/07 00:52:53;;;;;;;7.83;4.77;;;2.70;90.20;;;2.98;65.32;96868.63;5105637;28;20315;-40
2021/12/07 00:55:29;;;;;;;5.47;3.80;;;2.80;90.90;;;2.94;65.50;96865.41;5088792;28;20047;-39
2021/12/07 00:57:59;;;;;;;4.93;3.20;;;2.70;91.40;;;2.87;65.92;96864.28;5088505;28;20218;-40
2021/12/07 01:00:30;;;;;;;6.93;3.90;;;2.70;91.50;;;2.82;66.16;96861.22;5089813;28;20051;-39
2021/12/07 01:02:58;;;;;;;6.00;3.60;;;2.70;91.60;;;2.75;66.40;96846.00;5106786;28;20074;-40
2021/12/07 01:05:31;;;;;;;4.83;3.57;;;2.70;91.50;;;2.74;66.68;96852.19;5106261;28;20043;-39
2021/12/07 01:08:17;;;;;;;6.47;4.10;;;2.70;91.80;;;2.75;66.15;96848.63;5106886;28;20054;-39
2021/12/07 01:24:43;;;;;;;4.50;2.57;;;2.50;93.30;;;2.67;66.85;96850.22;5107545;28;20043;-39
2021/12/07 01:27:17;;;;;;;5.50;2.57;;;2.50;93.30;;;2.69;66.90;96849.13;5109474;28;20061;-39
2021/12/07 01:29:51;;;;;;;4.63;2.70;;;2.60;93.40;;;2.68;67.16;96846.66;5076629;28;20058;-39
2021/12/07 02:01:39;;;;;;;2.53;1.70;;;2.80;95.50;;;2.88;67.60;96882.56;5108079;28;20062;-39
2021/12/07 02:04:07;;;;;;;3.10;1.77;;;2.70;96.30;;;2.86;67.94;96875.78;5092453;28;20050;-39
2021/12/07 02:06:35;;;;;;;3.07;1.93;;;2.70;97.30;;;2.84;67.85;96875.06;5075691;28;20380;-40
2021/12/07 02:09:05;;;;;;;3.83;2.10;;;2.70;97.60;;;2.79;68.17;96874.63;5091589;28;20047;-39
2021/12/07 02:11:34;;;;;;;4.70;2.40;;;2.60;97.90;;;2.80;68.54;96876.31;5108263;28;20065;-40
2021/12/07 02:14:15;;;;;;;2.40;1.83;;;2.60;98.10;;;2.85;68.43;96874.94;5091534;28;20066;-39
2021/12/07 02:16:53;;;;;;;3.73;2.40;;;2.70;97.90;;;2.87;68.06;96880.91;5107984;28;20272;-39
2021/12/07 02:19:23;;;;;;;3.27;2.00;;;2.70;97.90;;;2.86;68.51;96881.84;5109100;28;20346;-40
2021/12/07 02:21:54;;;;;;;3.00;1.73;;;2.70;97.70;;;2.82;68.93;96885.72;5092723;28;20050;-40
2021/12/07 02:24:29;;;;;;;2.60;1.73;;;2.70;97.70;;;2.86;68.17;96892.38;5091911;28;20368;-40
2021/12/07 02:26:58;;;;;;;2.60;1.67;;;2.70;97.90;;;2.89;68.44;96886.00;5089452;28;20051;-39
2021/12/07 02:29:27;;;;;;;2.67;1.63;;;2.80;97.70;;;2.91;68.85;96900.69;5091633;28;20058;-40
2021/12/07 02:31:57;;;;;;;2.30;1.47;;;2.80;97.70;;;2.91;69.07;96894.63;5091038;28;20253;-39
2021/12/07 02:34:25;;;;;;;2.83;1.40;;;2.90;97.80;;;2.91;68.88;96898.06;5089920;28;20051;-39
2021/12/07 02:36:56;;;;;;;2.67;1.53;;;3.00;97.80;;;2.94;68.64;96899.59;5090644;28;20186;-39
2021/12/07 02:39:35;;;;;;;2.47;1.50;;;2.90;98.00;;;2.89;69.50;96900.00;5092922;28;20585;-39
2021/12/07 02:42:06;;;;;;;1.90;1.23;;;3.00;98.50;;;2.90;69.49;96906.91;5091288;28;20044;-39
2021/12/07 02:44:35;;;;;;;1.70;1.30;;;2.90;98.90;;;2.91;69.41;96907.75;5108014;28;20109;-39
2021/12/07 02:47:09;;;;;;;2.88;1.42;;;2.90;99.40;;;2.94;69.01;96921.47;5108303;28;20265;-39
2021/12/07 02:49:37;;;;;;;1.57;1.20;;;2.90;99.80;;;2.95;69.62;96923.13;5091858;28;20085;-39
2021/12/07 02:52:06;;;;;;;1.97;1.20;;;2.90;99.90;;;2.95;69.76;96917.06;5089753;28;20052;-40
2021/12/07 02:54:44;;;;;;;1.33;1.00;;;3.00;99.90;;;2.85;71.04;96921.41;5091228;28;20249;-39
2021/12/07 02:57:21;;;;;;;1.83;1.10;;;2.90;99.90;;;2.95;70.88;96912.63;5106531;28;20361;-39
2021/12/07 03:00:08;;;;;;;1.00;0.70;;;2.90;99.90;;;2.98;71.17;96919.41;5090934;28;20059;-39
2021/12/07 03:02:43;;;;;;;1.58;0.80;;;3.00;99.90;;;3.03;70.85;96917.22;5108740;28;20056;-39
2021/12/07 03:05:36;;;;;;;1.03;0.90;;;3.10;99.90;;;3.15;71.17;96920.59;5089716;28;20226;-39
2021/12/07 03:28:19;;;;;;;1.48;0.45;;;3.40;99.90;;;3.39;71.17;96936.03;5106708;28;20047;-39
2021/12/07 03:30:48;;;;;;;2.00;0.70;;;3.40;99.90;;;3.35;71.58;96932.00;5090669;28;20055;-39
2021/12/07 03:33:16;;;;;;;0.53;0.53;;;3.40;99.90;;;3.37;71.44;96935.34;5107381;28;20062;-39
2021/12/07 03:35:46;;;;;;;0.67;0.60;;;3.40;99.90;;;3.38;71.45;96939.66;5090233;28;20120;-39
2021/12/07 03:38:15;;;;;;;1.03;0.80;;;3.40;99.90;;;3.41;71.55;96941.16;5088721;28;20362;-39
2021/12/07 03:40:43;;;;;;;1.40;0.80;;;3.40;99.90;;;3.40;71.21;96935.06;5089574;28;20233;-39
2021/12/07 03:43:13;;;;;;;1.87;0.87;;;3.40;99.90;;;3.41;71.59;96936.72;5089605;28;20035;-39
2021/12/07 03:45:42;;;;;;;2.10;0.70;;;3.30;99.90;;;3.40;71.69;96940.34;5106289;28;20043;-39
2021/12/07 03:48:13;;;;;;;1.87;0.97;;;3.40;99.90;;;3.45;71.66;96945.19;5088216;28;20052;-39
2021/12/07 03:50:41;;;;;;;1.60;1.00;;;3.40;99.90;;;3.44;71.20;96949.63;5107744;28;20058;-39
2021/12/07 03:53:11;;;;;;;1.13;0.77;;;3.40;99.90;;;3.48;71.42;96948.38;5089435;28;20061;-39
2021/12/07 03:55:41;;;;;;;1.17;0.90;;;3.40;99.90;;;3.49;71.62;96947.44;5105193;28;20059;-39
2021/12/07 03:58:09;;;;;;;1.97;1.20;;;3.50;99.90;;;3.47;71.59;96957.28;5107749;28;20047;-39
2021/12/07 04:00:42;;;;;;;3.03;1.70;;;3.40;99.90;;;3.48;71.36;96963.34;5107424;28;20044;-39
2021/12/07 04:03:14;;;;;;;2.00;1.48;;;3.40;99.90;;;3.47;71.51;96977.47;5090347;28;20245;-39
2021/12/07 04:05:45;;;;;;;5.60;2.87;;;3.40;99.90;;;3.46;71.78;96981.09;5073376;28;20053;-39
2021/12/07 04:08:28;;;;;;;3.27;1.70;;;3.40;99.90;;;3.27;72.10;96974.75;5087266;28;20070;-39
2021/12/07 04:10:58;;;;;;;1.73;1.00;;;3.30;99.90;;;3.23;72.48;96991.78;5106455;28;20051;-39
2021/12/07 04:13:27;;;;;;;4.17;1.30;;;3.20;99.90;;;3.20;72.32;96997.31;5089459;28;20387;-39
2021/12/07 04:15:58;;;;;;;3.17;1.70;;;3.20;99.90;;;3.15;73.46;97002.13;5106736;28;20062;-39
2021/12/07 04:18:28;;;;;;;3.63;1.00;;;3.20;99.90;;;3.12;73.16;97008.50;5088710;28;20175;-39
2021/12/07 04:20:57;;;;;;;1.23;1.00;;;3.20;99.90;;;3.21;72.84;97011.28;5088406;28;20211;-39
2021/12/07 04:23:24;;;;;;;3.33;1.30;;;3.20;99.90;;;3.16;72.55;97006.44;5107058;28;20044;-39
2021/12/07 04:25:52;;;;;;;2.97;1.30;;;3.10;99.90;;;3.24;72.99;97011.03;5107510;28;20044;-39
2021/12/07 04:28:20;;;;;;;2.63;1.53;;;3.20;99.90;;;3.30;72.15;97013.16;5107357;28;20035;-39
2021/12/07 04:30:48;;;;;;;2.90;2.03;;;3.20;99.90;;;3.32;72.87;97005.97;5108116;28;20486;-39
2021/12/07 04:33:16;;;;;;;3.27;1.60;;;3.30;99.90;;;3.29;72.92;97009.66;5104479;28;20334;-39
2021/12/07 04:35:49;;;;;;;3.27;1.00;;;3.30;99.90;;;3.19;72.65;97023.75;5107916;28;20723;-39
2021/12/07 04:38:18;;;;;;;2.28;1.48;;;3.20;99.90;;;3.15;73.50;97031.06;5106633;28;20055;-40
2021/12/07 04:40:46;;;;;;;1.63;0.97;;;3.20;99.90;;;2.98;73.55;97002.72;5106369;28;20043;-40
2021/12/07 04:43:14;;;;;;;1.33;0.93;;;3.00;99.90;;;2.95;73.32;96985.41;5107483;28;20040;-40
2021/12/07 04:59:01;;;;;;;3.23;1.20;;;2.80;99.90;;;2.90;72.37;97001.56;5107587;28;20047;-40
2021/12/07 05:01:31;;;;;;;5.17;1.40;;;2.80;99.90;;;2.90;72.44;97011.25;5111474;28;20047;-39
2021/12/07 05:04:07;;;;;;;2.07;1.30;;;2.80;99.90;;;2.90;72.59;97014.72;5110268;28;20347;-40
2021/12/07 05:06:40;;;;;;;3.37;1.70;;;2.80;99.90;;;2.91;72.45;97026.91;5093722;28;20058;-40
2021/12/07 05:09:30;;;;;;;3.38;1.55;;;2.80;99.90;;;2.88;73.02;97036.84;5112075;28;20242;-40
2021/12/07 05:14:30;;;;;;;2.87;1.73;;;2.80;99.90;;;2.94;72.21;97045.03;5108236;28;20047;-40
2021/12/07 05:25:25;;;;;;;3.10;2.20;;;2.90;99.90;;;2.96;72.88;97072.03;5095507;28;20429;-39
2021/12/07 05:38:55;;;;;;;3.07;1.80;;;3.10;99.90;;;3.16;72.61;97082.72;5109668;28;20052;-40
2021/12/07 05:41:24;;;;;;;4.57;2.00;;;3.10;99.90;;;3.21;72.21;97067.38;5100315;28;20047;-40
2021/12/07 05:43:56;;;;;;;6.30;2.50;;;3.20;99.90;;;3.26;72.13;97078.34;5109652;28;20052;-40
2021/12/07 05:46:24;;;;;;;6.97;2.03;;;3.20;99.90;;;3.21;72.73;97070.00;5110718;28;20074;-40
2021/12/07 05:48:52;;;;;;;3.47;1.80;;;3.30;99.90;;;3.27;72.09;97066.84;5109843;28;20086;-40
2021/12/07 05:51:20;;;;;;;5.30;2.10;;;3.30;99.90;;;3.27;72.54;97073.91;5109714;28;20059;-40
2021/12/07 05:53:48;;;;;;;3.97;2.20;;;3.30;99.90;;;3.24;72.38;97092.56;5108095;28;20055;-40
2021/12/07 05:56:17;;;;;;;2.30;1.47;;;3.30;99.90;;;3.22;72.18;97087.47;5091025;28;20051;-41
2021/12/07 05:58:44;;;;;;;4.23;1.73;;;3.30;99.90;;;3.31;72.33;97085.84;5109280;28;20058;-40
2021/12/07 06:01:12;;;;;;;7.50;1.77;;;3.30;99.90;;;3.32;71.49;97096.25;5110482;28;20051;-40
2021/12/07 06:03:40;;;;;;;3.33;1.90;;;3.40;99.90;;;3.31;71.72;97106.88;5109299;28;20056;-40
2021/12/07 06:06:13;;;;;;;2.80;1.70;;;3.40;99.90;;;3.40;71.58;97115.81;5109973;28;20043;-40
2021/12/07 06:08:41;;;;;;;10.23;2.70;;;3.40;99.90;;;3.43;71.65;97118.19;5108308;28;20391;-40
2021/12/07 06:11:09;;;;;;;2.40;1.40;;;3.40;99.90;;;3.36;71.25;97128.41;5109180;28;20271;-40
2021/12/07 06:13:37;;;;;;;3.50;1.63;;;3.40;99.90;;;3.42;71.39;97129.69;5109711;28;20055;-40
2021/12/07 06:16:07;;;;;;;4.53;2.07;;;3.50;99.90;;;3.49;71.72;97128.19;5090367;28;20055;-40
2021/12/07 06:18:36;;;;;;;4.33;1.80;;;3.50;99.90;;;3.47;71.54;97133.59;5108933;28;20050;-40
2021/12/07 06:21:04;;;;;;;5.57;1.67;;;3.50;99.90;;;3.53;71.42;97134.88;5111330;28;20055;-40
2021/12/07 06:23:32;;;;;;;5.93;1.90;;;3.50;99.90;;;3.57;71.17;97140.69;5108657;28;20054;-40
2021/12/07 06:26:00;;;;;;;5.37;2.70;;;3.60;99.90;;;3.66;71.72;97139.91;5109700;28;20040;-40
2021/12/07 06:28:28;;;;;;;5.03;2.00;;;3.60;99.90;;;3.61;71.46;97150.03;5109156;28;20052;-40
2021/12/07 06:30:56;;;;;;;6.17;2.47;;;3.60;99.90;;;3.58;71.04;97150.28;5109872;28;20057;-40
2021/12/07 06:33:26;;;;;;;5.90;2.70;;;3.60;99.90;;;3.64;71.23;97152.38;5090860;28;20146;-40
2021/12/07 06:36:00;;;;;;;4.80;1.90;;;3.60;99.90;;;3.58;71.16;97155.53;5091094;28;20261;-41
2021/12/07 06:38:31;;;;;;;6.35;1.90;;;3.60;99.90;;;3.58;71.54;97164.25;5108505;28;20229;-40
2021/12/07 06:41:02;;;;;;;9.60;2.23;;;3.60;99.90;;;3.63;71.46;97166.53;5110083;28;20043;-40
2021/12/07 06:43:30;;;;;;;7.83;2.00;;;3.60;99.90;;;3.68;71.36;97166.94;5108610;28;20272;-40
2021/12/07 06:45:59;;;;;;;3.70;2.43;;;3.60;99.90;;;3.70;71.35;97172.91;5109168;28;20065;-40
2021/12/07 06:48:27;;;;;;;5.17;1.70;;;3.60;99.90;;;3.63;71.74;97175.25;5091170;28;20050;-39
2021/12/07 06:50:55;;;;;;;4.53;1.87;;;3.60;99.90;;;3.64;71.98;97171.63;5108179;28;20054;-40
2021/12/07 06:53:24;;;;;;;4.70;1.87;;;3.60;99.90;;;3.65;71.70;97175.13;5108307;28;20044;-39
2021/12/07 06:55:51;;;;;;;5.60;1.87;;;3.70;99.90;;;3.66;71.58;97182.03;5107547;28;20050;-40
2021/12/07 06:58:19;;;;;;;7.30;2.23;;;3.60;99.90;;;3.74;71.47;97182.22;5107737;28;20051;-40
2021/12/07 07:00:47;;;;;;;7.93;2.30;;;3.70;99.90;;;3.73;71.60;97178.75;5108972;28;20031;-40
2021/12/07 07:03:15;;;;;;;4.63;1.70;;;3.70;99.90;;;3.75;71.57;97179.47;5108204;28;20242;-40
2021/12/07 07:05:43;;;;;;;6.33;2.07;;;3.70;99.90;;;3.78;71.02;97182.81;5107958;28;20502;-40
2021/12/07 07:08:11;;;;;;;3.63;2.10;;;3.70;99.90;;;3.81;71.06;97193.91;5089601;28;20241;-40
2021/12/07 07:10:39;;;;;;;6.97;1.87;;;3.70;99.90;;;3.72;71.09;97203.44;5109999;28;20053;-39
2021/12/07 07:13:07;;;;;;;6.80;1.93;;;3.70;99.90;;;3.60;70.85;97198.34;5109385;28;20329;-40
2021/12/07 07:15:35;;;;;;;4.33;2.00;;;3.60;99.90;;;3.62;70.76;97209.59;5107773;28;20061;-40
2021/12/07 07:18:03;;;;;;;3.43;1.70;;;3.50;99.90;;;3.52;70.91;97220.88;5107181;28;20070;-40
2021/12/07 07:20:31;;;;;;;6.73;1.93;;;3.50;99.90;;;3.34;71.43;97217.97;5108806;28;20040;-40
2021/12/07 07:22:59;;;;;;;4.20;1.93;;;3.40;99.90;;;3.40;71.50;97219.28;5108551;28;20326;-40
2021/12/07 07:25:27;;;;;;;6.63;2.10;;;3.40;99.90;;;3.39;71.09;97224.66;5108094;28;20048;-40
2021/12/07 07:27:55;;;;;;;3.80;1.50;;;3.40;99.90;;;3.37;70.92;97219.50;5108548;28;20047;-40
2021/12/07 07:30:23;;;;;;;3.80;1.90;;;3.40;99.90;;;3.38;71.02;97221.19;5108808;28;20055;-40
2021/12/07 07:32:51;;;;;;;4.87;2.13;;;3.40;99.90;;;3.44;71.58;97227.75;5089806;28;20070;-40
2021/12/07 07:35:20;;;;;;;2.30;1.50;;;3.50;99.90;;;3.42;70.63;97230.50;5104624;28;20079;-40
2021/12/07 07:37:48;;;;;;;5.47;2.00;;;3.40;99.90;;;3.46;71.09;97231.09;5090496;28;20059;-40
2021/12/07 07:40:20;;;;;;;6.33;2.47;;;3.50;99.90;;;3.46;70.92;97228.47;5107195;28;20053;-40
2021/12/07 07:42:50;;;;;;;5.80;1.87;;;3.50;99.90;;;3.52;70.80;97235.84;5105077;28;20044;-40
2021/12/07 07:45:50;;;;;;;2.73;1.90;;;3.50;99.90;;;3.33;71.10;97234.75;5091341;28;20052;-40
2021/12/07 07:48:21;;;;;;;10.10;4.10;;;3.30;99.90;;;3.34;71.43;97236.41;5108963;28;20057;-40
2021/12/07 07:50:52;;;;;;;6.00;3.00;;;3.40;99.90;;;3.35;71.04;97235.47;5082179;28;20054;-40
2021/12/07 07:53:21;;;;;;;6.57;2.60;;;3.40;99.90;;;3.38;70.76;97237.00;5099205;28;20351;-40
2021/12/07 07:55:51;;;;;;;3.20;2.00;;;3.40;99.90;;;3.47;70.79;97238.00;5117425;28;20350;-40
2021/12/07 07:58:19;;;;;;;4.73;1.80;;;3.50;99.90;;;3.52;70.52;97246.38;5118357;28;20074;-40
2021/12/07 08:00:48;;;;;;;8.37;1.60;;;3.50;99.90;;;3.48;70.50;97240.53;5119522;28;20045;-40
2021/12/07 08:03:16;;;;;;;7.97;2.00;;;3.50;99.90;;;3.43;70.79;97242.72;5099574;28;20280;-39
2021/12/07 08:05:44;;;;;;;5.57;2.17;;;3.50;99.90;;;3.52;71.00;97239.31;5098986;28;20036;-40
2021/12/07 08:08:16;;;;;;;5.20;2.13;;;3.50;99.90;;;3.59;70.67;97241.41;5097799;28;20273;-40
2021/12/07 08:10:44;;;;;;;3.03;1.47;;;3.60;99.90;;;3.64;70.14;97247.16;5115717;28;20052;-40
2021/12/07 08:13:12;;;;;;;6.43;2.00;;;3.70;99.90;;;3.65;70.21;97256.72;5117274;28;20166;-40
2021/12/07 08:15:43;;;;;;;4.90;1.80;;;3.70;99.90;;;3.59;70.17;97268.59;5107264;28;20062;-40
2021/12/07 08:18:12;;;;;;;10.30;2.40;;;3.70;99.90;;;3.53;70.10;97263.84;5113301;28;20064;-40
2021/12/07 08:20:42;;;;;;;4.53;1.80;;;3.60;99.90;;;3.53;70.28;97259.41;5109934;28;20048;-40
2021/12/07 08:23:11;;;;;;;5.10;1.97;;;3.60;99.90;;;3.55;69.75;97257.50;5119449;28;20039;-40
2021/12/07 08:25:44;;;;;;;6.40;1.77;;;3.70;99.90;;;3.54;70.20;97261.06;5118470;28;20048;-40
2021/12/07 08:28:14;;;;;;;4.80;1.90;;;3.70;99.90;;;3.62;69.58;97254.34;5119083;28;20046;-40
2021/12/07 08:30:43;;;;;;;2.17;1.43;;;3.70;99.90;;;3.51;69.58;97258.72;5111877;28;20245;-40
2021/12/07 08:33:11;;;;;;;6.43;1.90;;;3.60;99.10;;;3.37;69.80;97272.16;5105963;28;20060;-40
2021/12/07 08:35:39;;;;;;;4.87;2.20;;;3.50;99.60;;;3.40;70.21;97271.09;5106445;28;20247;-40
2021/12/07 08:38:07;;;;;;;5.80;1.77;;;3.50;99.90;;;3.41;69.72;97267.47;5107069;28;20043;-40
2021/12/07 08:40:39;;;;;;;6.17;2.70;;;3.50;99.90;;;3.30;69.68;97271.81;5106775;28;20070;-40
2021/12/07 08:43:11;;;;;;;4.50;2.13;;;3.40;99.90;;;3.37;69.75;97284.47;5106648;28;20364;-40
2021/12/07 08:45:41;;;;;;;4.90;2.13;;;3.40;99.90;;;3.35;70.02;97280.19;5089391;28;20066;-40
2021/12/07 08:48:10;;;;;;;6.60;1.70;;;3.40;99.90;;;3.45;69.77;97274.16;5106859;28;20222;-40
2021/12/07 08:50:38;;;;;;;6.87;1.80;;;3.50;99.90;;;3.50;69.57;97291.25;5105730;28;20059;-40
2021/12/07 08:53:08;;;;;;;4.27;1.80;;;3.50;99.90;;;3.55;69.89;97282.97;5107106;28;20069;-40
2021/12/07 09:01:11;;;;;;;6.67;1.90;;;3.60;99.90;;;3.64;69.72;97281.38;5104271;28;20032;-40
2021/12/07 09:03:39;;;;;;;3.17;1.50;;;3.70;99.90;;;3.66;69.84;97284.72;5105681;28;20040;-39
2021/12/07 09:06:08;;;;;;;4.07;1.40;;;3.70;99.60;;;3.64;69.49;97299.81;5106148;28;20042;-40
2021/12/07 09:08:40;;;;;;;3.33;1.27;;;3.70;99.20;;;3.76;69.85;97301.41;5105780;28;20055;-40
2021/12/07 09:11:10;;;;;;;6.00;2.37;;;3.80;99.50;;;3.74;69.57;97304.19;5105267;28;20048;-40
2021/12/07 09:13:39;;;;;;;3.90;1.43;;;3.90;99.00;;;3.78;69.25;97304.78;5104854;28;20063;-40
2021/12/07 09:16:10;;;;;;;5.00;1.83;;;3.90;98.40;;;3.83;68.83;97301.75;5106479;28;20054;-40
2021/12/07 09:18:38;;;;;;;6.87;2.00;;;4.00;97.90;;;3.93;69.18;97290.31;5104422;28;20051;-40
2021/12/07 09:21:06;;;;;;;8.13;1.70;;;4.10;98.40;;;3.96;68.94;97301.59;5105730;28;20227;-40
2021/12/07 09:23:34;;;;;;;3.90;1.70;;;4.10;98.20;;;4.00;68.56;97290.66;5106521;28;20404;-40
2021/12/07 09:26:05;;;;;;;8.97;1.87;;;4.20;97.50;;;4.02;68.73;97296.63;5106384;28;20042;-40
2021/12/07 09:28:37;;;;;;;4.27;1.50;;;4.20;97.10;;;3.97;68.19;97287.44;5105360;28;20047;-40
2021/12/07 09:31:08;;;;;;;7.30;2.80;;;4.10;96.00;;;3.95;68.06;97298.09;5107194;28;20051;-39
2021/12/07 09:33:36;;;;;;;3.27;1.43;;;4.20;96.20;;;3.94;67.37;97302.53;5106655;28;20058;-39
2021/12/07 09:36:07;;;;;;;6.07;2.50;;;4.20;95.80;;;3.88;67.43;97305.69;5103940;28;20370;-39
2021/12/07 09:38:36;;;;;;;5.73;2.07;;;4.10;95.20;;;4.01;67.37;97308.09;5105123;28;20048;-39
2021/12/07 09:41:08;;;;;;;4.10;1.80;;;4.20;96.10;;;4.05;67.08;97313.97;5107335;28;20043;-39
2021/12/07 09:43:36;;;;;;;6.63;2.00;;;4.20;94.80;;;4.06;67.44;97305.13;5106351;28;20395;-39
2021/12/07 09:46:07;;;;;;;4.47;2.20;;;4.20;95.80;;;3.99;65.85;97314.47;5107355;28;20384;-39
2021/12/07 09:48:36;;;;;;;5.43;1.70;;;4.20;93.00;;;3.97;66.40;97313.78;5109810;28;20042;-40
2021/12/07 09:51:07;;;;;;;5.70;2.47;;;4.10;93.20;;;3.98;66.54;97302.28;5110419;28;20055;-39
2021/12/07 09:53:35;;;;;;;4.80;1.47;;;4.20;94.30;;;4.05;66.81;97316.59;5110209;28;20054;-39
2021/12/07 09:56:07;;;;;;;4.97;1.70;;;4.20;94.70;;;4.10;66.40;97315.25;5109997;28;20047;-39
2021/12/07 09:58:38;;;;;;;5.37;1.80;;;4.30;93.70;;;4.24;66.82;97305.34;5110337;28;20050;-40
2021/12/07 10:01:09;;;;;;;3.30;1.60;;;4.30;94.70;;;4.25;66.02;97309.66;5109745;28;20340;-39
2021/12/07 10:03:38;;;;;;;6.00;2.00;;;4.30;92.70;;;4.16;65.70;97327.06;5107986;28;20051;-39
2021/12/07 10:06:08;;;;;;;5.17;2.77;;;4.30;92.00;;;4.29;65.56;97321.63;5109169;28;20048;-39
2021/12/07 10:08:37;;;;;;;2.43;1.30;;;4.40;92.20;;;4.29;65.83;97314.53;5110092;28;20055;-39
2021/12/07 10:11:09;;;;;;;4.10;1.43;;;4.40;91.20;;;4.21;64.05;97343.34;5107732;28;20051;-39
2021/12/07 10:13:42;;;;;;;4.43;1.73;;;4.40;90.80;;;4.08;62.87;97306.66;5108577;28;20333;-39
2021/12/07 10:16:16;;;;;;;3.73;1.50;;;4.30;86.30;;;4.09;62.57;97310.97;5109991;28;20047;-39
2021/12/07 10:18:45;;;;;;;4.70;1.70;;;4.30;85.60;;;4.19;64.19;97302.25;5109704;28;20256;-39
2021/12/07 10:21:39;;;;;;;2.17;1.23;;;4.30;88.20;;;4.16;62.56;97311.28;5108847;28;20054;-39
2021/12/07 10:24:10;;;;;;;6.77;1.73;;;4.40;84.20;;;4.24;63.59;97302.72;5108777;28;20051;-39
2021/12/07 10:26:42;;;;;;;6.43;1.60;;;4.40;86.70;;;4.41;64.73;97296.03;5109803;28;20250;-39
2021/12/07 10:29:20;;;;;;;7.73;2.00;;;4.60;87.30;;;4.48;63.31;97292.72;5109359;28;20249;-39
2021/12/07 10:32:01;;;;;;;3.17;1.40;;;4.70;84.80;;;4.59;63.30;97290.97;5109713;28;20511;-39
2021/12/07 10:34:36;;;;;;;4.97;1.87;;;4.80;85.60;;;4.70;63.82;97282.97;5108399;28;20040;-39
2021/12/07 10:37:17;;;;;;;5.57;1.70;;;4.80;85.50;;;4.73;63.32;97282.72;5106228;28;20051;-39
2021/12/07 10:39:49;;;;;;;8.23;2.00;;;4.90;84.00;;;4.79;63.87;97276.91;5110401;28;20052;-40
2021/12/07 10:42:30;;;;;;;5.97;1.97;;;4.90;85.20;;;4.78;61.20;97285.75;5108005;28;20040;-39
2021/12/07 10:45:05;;;;;;;4.33;1.97;;;4.90;80.20;;;4.79;62.71;97268.97;5108315;28;20055;-39
2021/12/07 10:47:33;;;;;;;7.10;2.87;;;4.90;80.40;;;4.72;60.36;97284.50;5108208;28;20049;-39
2021/12/07 10:50:09;;;;;;;4.70;2.17;;;4.90;79.10;;;4.85;62.03;97257.88;5108179;28;20238;-38
2021/12/07 10:52:42;;;;;;;3.77;1.40;;;5.00;81.80;;;4.89;61.78;97253.19;5108903;28;20249;-38
2021/12/07 10:55:26;;;;;;;5.93;1.43;;;5.00;80.70;;;5.01;61.43;97245.97;5107257;28;20055;-39
2021/12/07 10:58:01;;;;;;;;;;;5.10;80.70;;;5.07;60.10;97237.53;5110045;28;20061;-39
2021/12/07 11:00:36;;;;;;;4.85;1.70;;;5.20;77.80;;;5.18;61.21;97234.75;5108151;28;19929;-39
2021/12/07 11:03:08;;;;;;;4.40;1.83;;;5.20;78.80;;;5.28;62.28;97234.75;5108283;28;20292;-39
2021/12/07 11:05:51;;;;;;;8.73;2.03;;;5.30;80.80;;;5.28;61.82;97227.69;5108029;28;20066;-39
2021/12/07 11:08:26;;;;;;;5.23;1.77;;;5.30;80.20;;;5.24;59.80;97228.09;5108262;28;20055;-39
2021/12/07 11:10:55;;;;;;;5.57;1.50;;;5.30;78.00;;;5.30;61.61;97236.28;5110015;28;20054;-39
2021/12/07 11:13:35;;;;;;;4.70;1.83;;;5.40;78.20;;;5.20;58.90;97230.19;5108990;28;20069;-38
2021/12/07 11:16:11;;;;;;;6.20;1.80;;;5.20;75.50;;;5.19;60.44;97217.94;5107592;28;20060;-39
2021/12/07 11:18:45;;;;;;;4.63;1.37;;;5.30;76.50;;;5.15;57.88;97224.47;5107618;28;20050;-38
2021/12/07 11:21:19;;;;;;;3.03;1.33;;;5.20;71.10;;;5.10;58.93;97222.25;5108224;28;20358;-39
2021/12/07 11:23:55;;;;;;;6.27;1.50;;;5.10;72.80;;;5.10;59.30;97218.78;5105648;28;20052;-39
2021/12/07 11:31:49;;;;;;;2.10;1.30;;;5.00;71.00;;;5.08;59.41;97218.09;5107938;28;20050;-38
2021/12/07 11:34:23;;;;;;;4.00;1.10;;;5.00;74.10;;;5.04;59.26;97208.75;5107363;27;20223;-39
2021/12/07 11:37:08;;;;;;;4.93;1.60;;;5.00;73.60;;;5.06;58.85;97210.31;5107350;28;20055;-39
2021/12/07 11:39:47;;;;;;;3.70;1.70;;;5.00;73.10;;;5.08;58.33;97224.19;5108285;28;20062;-39
2021/12/07 11:42:27;;;;;;;8.40;1.90;;;5.00;73.50;;;5.05;57.49;97213.91;5107392;28;20233;-39
2021/12/07 11:44:57;;;;;;;6.83;1.73;;;5.00;70.70;;;5.08;58.69;97210.19;5106832;28;20042;-39
2021/12/07 11:47:39;;;;;;;4.30;1.47;;;5.00;72.80;;;5.13;58.54;97208.75;5106655;28;20062;-39
2021/12/07 11:50:25;;;;;;;9.40;1.70;;;5.20;71.60;;;5.04;55.89;97201.69;5108206;28;20067;-39
2021/12/07 11:53:01;;;;;;;5.43;1.10;;;5.10;68.20;;;5.02;57.36;97206.28;5107837;28;20044;-39
2021/12/07 11:55:31;;;;;;;5.00;1.40;;;5.10;69.60;;;5.08;56.83;97195.16;5108204;28;20111;-39
2021/12/07 11:58:00;;;;;;;3.67;1.23;;;5.20;70.20;;;5.10;58.04;97201.16;5107484;28;20163;-39
2021/12/07 12:00:36;;;;;;;4.13;1.73;;;5.20;72.10;;;5.04;57.36;97188.50;5108596;28;20055;-39
2021/12/07 12:03:08;;;;;;;3.77;1.20;;;5.20;69.20;;;5.15;58.66;97189.34;5106291;28;20045;-39
2021/12/07 12:05:40;;;;;;;5.27;1.50;;;5.20;71.30;;;5.24;57.93;97181.41;5107761;28;20257;-39
2021/12/07 12:08:09;;;;;;;4.20;1.50;;;5.20;70.70;;;5.18;56.96;97175.88;5105220;28;20058;-39
2021/12/07 12:10:44;;;;;;;3.97;1.70;;;5.20;69.40;;;5.23;58.51;97173.63;5108383;28;20070;-39
2021/12/07 12:13:17;;;;;;;5.40;1.97;;;5.20;70.50;;;5.25;57.41;97162.00;5106925;28;20059;-39
2021/12/07 12:16:23;;;;;;;4.83;1.77;;;5.30;69.70;;;5.26;57.14;97162.81;5106473;28;20058;-39
2021/12/07 12:19:12;;;;;;;5.27;1.50;;;5.20;69.40;;;5.24;55.80;97162.94;5101741;28;20063;-39
2021/12/07 12:21:54;;;;;;;3.57;1.07;;;5.20;67.40;;;5.19;56.05;97145.84;5105140;28;20334;-39
2021/12/07 12:24:40;;;;;;;2.70;1.13;;;5.10;69.30;;;5.21;57.71;97151.81;5107543;28;20353;-39
2021/12/07 12:27:27;;;;;;;2.97;1.50;;;5.10;69.80;;;5.20;56.62;97144.91;5106362;28;20059;-39
2021/12/07 12:29:58;;;;;;;6.00;1.40;;;5.10;68.10;;;5.18;57.32;97139.75;5106762;28;20043;-39
2021/12/07 12:32:42;;;;;;;3.10;1.47;;;5.10;69.60;;;5.17;57.17;97126.69;5106521;28;20059;-39
2021/12/07 12:35:12;;;;;;;4.95;1.23;;;5.10;68.10;;;5.13;56.25;97120.84;5105820;28;20357;-39
2021/12/07 12:37:47;;;;;;;4.10;1.40;;;5.00;67.00;;;5.17;56.46;97124.88;5107491;28;20262;-39
2021/12/07 12:40:30;;;;;;;3.47;1.17;;;5.10;68.50;;;5.19;55.00;97127.38;5106162;28;20067;-39
2021/12/07 12:43:01;;;;;;;4.00;1.43;;;5.10;68.30;;;5.23;57.15;97113.75;5107387;28;20054;-39
2021/12/07 12:45:36;;;;;;;3.73;1.53;;;5.10;69.10;;;5.27;57.19;97111.66;5106310;28;20074;-39